Flight Track Log - Related Links

Times and Time Zones

All times are in EDT time to prevent confusion due to time zone crossing. See the AAL1068 flight status page for this flight to view local times or setup timezone preferences in your user account.

Time Position Orientation Groundspeed Altitude Reporting Facility
EDT Latitude Longitude Course Direction KTS MPH feet Rate Location/Type
Sat 08:10:57 PM 41.9167 -87.9000 157° South 177 204 2,500  Level Chicago TRACON
Sat 08:12:00 PM 41.6494 -87.7127 166° South  Level Estimated
Sat 08:12:46 PM 41.8053 -87.8686 168° South 251 289 6,700  Level Chicago Center
Sat 08:13:00 PM 41.5386 -87.6485 167° South  Level Estimated
Sat 08:13:47 PM 41.7250 -87.8369 164° South 295 339 9,600  Level Chicago Center
Sat 08:14:00 PM 41.4278 -87.5846 180° South  Level Estimated
Sat 08:14:49 PM 41.6400 -87.8064 165° South 314 361 12,100  Level Chicago Center
Sat 08:15:00 PM 41.3169 -87.5208 180° South  Level Estimated
Sat 08:15:50 PM 41.5458 -87.7722 165° South 343 395 14,600  Level Chicago Center
Sat 08:16:00 PM 41.2089 -87.4589 157° South  Level Estimated
Sat 08:16:51 PM 41.4456 -87.7222 160° South 377 434 17,400  Level Chicago Center
Sat 08:17:52 PM 41.3397 -87.6603 156° South 406 467 19,600 2,410 Climbing Chicago Center
Sat 08:18:53 PM 41.2056 -87.5772 155° Southeast 438 504 22,300 2,293 Climbing Chicago Center
Sat 08:19:55 PM 41.0889 -87.5111 157° South 450 518 24,300 1,902 Climbing Chicago Center
Sat 08:20:56 PM 40.9683 -87.4453 158° South 465 535 26,200 1,672 Climbing Chicago Center
Sat 08:21:57 PM 40.8464 -87.3758 157° South 474 545 27,700 1,623 Climbing Chicago Center
Sat 08:22:58 PM 40.7231 -87.3083 157° South 479 551 29,500 1,672 Climbing Chicago Center
Sat 08:23:59 PM 40.5947 -87.2411 158° South 490 564 31,100 1,967 Climbing Chicago Center
Sat 08:25:00 PM 40.4722 -87.1711 157° South 483 556 33,500 1,707 Climbing Chicago Center
Sat 08:26:02 PM 40.3533 -87.1058 157° South 466 536 34,600 1,220 Climbing Chicago Center
Sat 08:27:03 PM 40.2322 -87.0392 157° South 470 541 36,000 1,180 Climbing Chicago Center
Sat 08:28:04 PM 40.0911 -86.9631 158° South 458 527 37,000 789 Climbing Chicago Center
Sat 08:28:19 PM 40.0717 -86.9550 162° South 463 533 37,000  Level Indianapolis Center
Sat 08:29:20 PM 39.9503 -86.8878 157° South 469 540 37,000  Level Indianapolis Center
Sat 08:30:21 PM 39.8261 -86.8222 158° South 475 547 37,000  Level Indianapolis Center
Sat 08:31:22 PM 39.7011 -86.7556 158° South 481 554 37,000  Level Indianapolis Center
Sat 08:32:23 PM 39.5781 -86.6897 158° South 478 550 37,000  Level Indianapolis Center
Sat 08:33:24 PM 39.4558 -86.6253 158° South 472 543 37,000  Level Indianapolis Center
Sat 08:34:25 PM 39.3344 -86.5614 158° South 468 539 37,000  Level Indianapolis Center
Sat 08:35:26 PM 39.2128 -86.4961 157° South 470 541 37,000  Level Indianapolis Center
Sat 08:36:27 PM 39.0897 -86.4308 158° South 473 544 37,000  Level Indianapolis Center
Sat 08:37:28 PM 38.9672 -86.3678 158° South 471 542 37,000  Level Indianapolis Center
Sat 08:38:29 PM 38.8456 -86.3050 158° South 468 539 37,000  Level Indianapolis Center
Sat 08:39:30 PM 38.7256 -86.2422 158° South 463 533 37,000  Level Indianapolis Center
Sat 08:40:31 PM 38.6072 -86.1811 158° South 456 525 37,000  Level Indianapolis Center
Sat 08:41:32 PM 38.4881 -86.1197 158° South 456 525 37,000  Level Indianapolis Center
Sat 08:42:33 PM 38.3475 -86.0478 158° South 449 517 37,000  Level Indianapolis Center
Sat 08:43:34 PM 38.2300 -85.9875 158° South 451 519 37,000  Level Indianapolis Center
Sat 08:44:34 PM 38.1111 -85.9281 159° South 454 522 37,000  Level Indianapolis Center
Sat 08:45:35 PM 37.9933 -85.8675 158° South 452 520 37,000  Level Indianapolis Center
Sat 08:46:36 PM 37.8744 -85.8075 158° South 456 525 37,000  Level Indianapolis Center
Sat 08:47:37 PM 37.7575 -85.7478 158° South 451 519 37,000  Level Indianapolis Center
Sat 08:48:38 PM 37.6400 -85.6894 159° South 451 519 37,000  Level Indianapolis Center
Sat 08:49:39 PM 37.5219 -85.6303 158° South 452 520 37,000  Level Indianapolis Center
Sat 08:50:40 PM 37.4028 -85.5711 158° South 456 525 37,000  Level Indianapolis Center
Sat 08:51:41 PM 37.2894 -85.5144 158° South 455 524 37,000  Level Indianapolis Center
Sat 08:52:42 PM 37.1725 -85.4558 158° South 449 517 37,000  Level Indianapolis Center
Sat 08:53:42 PM 37.0547 -85.3997 159° South 451 519 37,000  Level Indianapolis Center
Sat 08:54:43 PM 36.9386 -85.3408 158° South 449 517 37,000  Level Indianapolis Center
Sat 08:55:44 PM 36.8211 -85.2842 159° South 451 519 37,000  Level Indianapolis Center
Sat 08:56:45 PM 36.7044 -85.2253 158° South 452 520 37,000  Level Indianapolis Center
Sat 08:57:46 PM 36.5858 -85.1728 160° South 452 520 37,000  Level Indianapolis Center
Sat 08:58:47 PM 36.4647 -85.1436 169° South 445 512 37,000  Level Indianapolis Center
Sat 08:59:48 PM 36.3192 -85.1058 168° South 443 510 37,000  Level Indianapolis Center
Sat 09:00:49 PM 36.1967 -85.0744 168° South 449 517 37,000  Level Indianapolis Center
Sat 09:01:49 PM 36.0761 -85.0433 168° South 445 512 37,000  Level Indianapolis Center
Sat 09:02:50 PM 35.9631 -85.0142 168° South 449 517 37,000  Level Indianapolis Center
Sat 09:03:51 PM 35.8397 -84.9839 169° South 453 521 37,000  Level Atlanta Center
Sat 09:04:51 PM 35.7150 -84.9544 169° South 455 524 37,000  Level Atlanta Center
Sat 09:05:51 PM 35.5961 -84.9225 168° South 455 524 37,000  Level Atlanta Center
Sat 09:06:51 PM 35.4733 -84.8931 169° South 450 518 37,000  Level Atlanta Center
Sat 09:07:51 PM 35.3525 -84.8611 168° South 450 518 37,000  Level Atlanta Center
Sat 09:08:51 PM 35.2317 -84.8322 169° South 450 518 37,000  Level Atlanta Center
Sat 09:09:51 PM 35.1108 -84.8006 168° South 450 518 37,000  Level Atlanta Center
Sat 09:10:51 PM 34.9900 -84.7689 168° South 450 518 37,000  Level Atlanta Center
Sat 09:11:51 PM 34.8692 -84.7425 170° South 450 518 37,000  Level Atlanta Center
Sat 09:12:51 PM 34.7483 -84.7111 168° South 450 518 37,000  Level Atlanta Center
Sat 09:13:51 PM 34.6294 -84.6800 168° South 444 511 37,000 450 Level Atlanta Center
Sat 09:14:51 PM 34.5067 -84.6489 168° South 450 518 37,900 900 Climbing Atlanta Center
Sat 09:15:51 PM 34.3836 -84.6178 168° South 450 518 38,800 550 Climbing Atlanta Center
Sat 09:16:51 PM 34.2522 -84.5867 169° South 450 518 39,000 100 Climbing Atlanta Center
Sat 09:17:51 PM 34.1314 -84.5583 169° South 450 518 39,000  Level Atlanta Center
Sat 09:18:51 PM 34.0167 -84.5300 168° South 455 524 39,000  Level Atlanta Center
Sat 09:19:51 PM 33.8811 -84.5042 171° South 455 524 39,000  Level Atlanta Center
Sat 09:20:51 PM 33.7581 -84.4836 172° South 455 524 39,000  Level Atlanta Center
Sat 09:21:51 PM 33.6350 -84.4631 172° South 449 517 39,000  Level Atlanta Center
Sat 09:22:51 PM 33.5222 -84.4500 174° South 449 517 39,000  Level Atlanta Center
Sat 09:23:51 PM 33.3969 -84.4294 172° South 449 517 39,000  Level Atlanta Center
Sat 09:24:51 PM 33.2614 -84.4089 173° South 449 517 39,000  Level Atlanta Center
Sat 09:25:51 PM 33.1406 -84.3911 173° South 443 510 39,000  Level Atlanta Center
Sat 09:26:51 PM 33.0131 -84.3733 173° South 449 517 39,000  Level Atlanta Center
Sat 09:27:51 PM 32.8900 -84.3556 173° South 449 517 39,000  Level Atlanta Center
Sat 09:28:51 PM 32.7711 -84.3328 171° South 449 517 39,000  Level Atlanta Center
Sat 09:29:51 PM 32.6481 -84.3150 173° South 443 510 39,000  Level Atlanta Center
Sat 09:30:51 PM 32.5250 -84.2950 172° South 443 510 39,000  Level Atlanta Center
Sat 09:31:51 PM 32.4039 -84.2775 173° South 443 510 39,000  Level Atlanta Center
Sat 09:32:51 PM 32.2808 -84.2575 172° South 443 510 39,000  Level Atlanta Center
Sat 09:33:51 PM 32.1617 -84.2400 173° South 443 510 39,000  Level Atlanta Center
Sat 09:34:39 PM 32.0614 -84.2236 172° South 444 511 39,000  Level Jacksonville Center
Sat 09:35:39 PM 31.9406 -84.2072 173° South 444 511 39,000  Level Jacksonville Center
Sat 09:36:39 PM 31.8175 -84.1908 174° South 444 511 39,000  Level Jacksonville Center
Sat 09:37:39 PM 31.7028 -84.1722 172° South 449 517 39,000  Level Jacksonville Center
Sat 09:38:39 PM 31.5797 -84.1533 173° South 449 517 39,000  Level Jacksonville Center
Sat 09:39:39 PM 31.4550 -84.1128 164° South 454 522 39,000  Level Jacksonville Center
Sat 09:40:39 PM 31.3322 -84.0600 160° South 454 522 39,000  Level Jacksonville Center
Sat 09:41:39 PM 31.2075 -84.0100 161° South 466 536 39,000  Level Jacksonville Center
Sat 09:42:39 PM 31.0825 -83.9622 162° South 466 536 39,000  Level Jacksonville Center
Sat 09:43:39 PM 30.9597 -83.9100 160° South 471 542 39,000  Level Jacksonville Center
Sat 09:44:39 PM 30.8350 -83.8628 162° South 466 536 39,000  Level Jacksonville Center
Sat 09:45:39 PM 30.7100 -83.8108 160° South 466 536 39,000  Level Jacksonville Center
Sat 09:46:39 PM 30.5850 -83.7589 160° South 466 536 39,000  Level Jacksonville Center
Sat 09:47:39 PM 30.4664 -83.7119 161° South 462 532 39,000  Level Jacksonville Center
Sat 09:48:39 PM 30.3414 -83.6628 161° South 462 532 39,000  Level Jacksonville Center
Sat 09:49:39 PM 30.2144 -83.6136 161° South 468 539 39,000  Level Jacksonville Center
Sat 09:50:39 PM 30.0894 -83.5672 162° South 473 544 39,000  Level Jacksonville Center
Sat 09:51:39 PM 29.9664 -83.5183 161° South 473 544 39,000  Level Jacksonville Center
Sat 09:52:39 PM 29.8414 -83.4697 161° South 473 544 39,000  Level Jacksonville Center
Sat 09:53:39 PM 29.7164 -83.4236 162° South 479 551 39,000 -50 Level Jacksonville Center
Sat 09:54:39 PM 29.5789 -83.3678 161° South 479 551 38,900  Descending Jacksonville Center
Sat 09:55:39 PM 29.4517 -83.3172 161° South 479 551 39,000 50 Climbing Jacksonville Center
Sat 09:56:39 PM 29.3286 -83.2689 161° South 479 551 39,000  Level Jacksonville Center
Sat 09:57:39 PM 29.2014 -83.2186 161° South 479 551 39,000  Level Jacksonville Center
Sat 09:58:39 PM 29.0742 -83.1706 162° South 484 557 39,000  Level Jacksonville Center
Sat 09:59:39 PM 28.9469 -83.1228 162° South 484 557 39,000 -30 Level Jacksonville Center
Sat 10:01:56 PM 28.6792 -83.0211 162° South 482 555 38,900  Descending Miami Center
Sat 10:02:58 PM 28.5375 -82.9708 163° South 476 548 39,000 50 Climbing Miami Center
Sat 10:03:57 PM 28.4125 -82.9192 160° South 476 548 39,000 -51 Level Miami Center
Sat 10:04:56 PM 28.2853 -82.8722 162° South 476 548 38,900  Descending Miami Center
Sat 10:05:57 PM 28.1622 -82.8233 161° South 476 548 39,000 50 Climbing Miami Center
Sat 10:06:57 PM 28.0347 -82.7767 162° South 476 548 39,000  Level Miami Center
Sat 10:07:58 PM 27.9033 -82.7275 162° South 482 555 39,000  Level Miami Center
Sat 10:08:56 PM 27.7758 -82.6786 161° South 482 555 39,000  Level Miami Center
Sat 10:09:57 PM 27.6631 -82.6331 160° South 482 555 39,000  Level Miami Center
Sat 10:10:57 PM 27.5475 -82.5500 147° Southeast 482 555 39,000  Level Miami Center
Sat 10:11:56 PM 27.4286 -82.4367 140° Southeast 490 564 39,000  Level Miami Center
Sat 10:12:57 PM 27.3222 -82.3311 139° Southeast 508 585 39,000  Level Miami Center
Sat 10:13:58 PM 27.2275 -82.2378 139° Southeast 509 586 39,000  Level Miami Center
Sat 10:14:57 PM 27.1228 -82.1372 139° Southeast 504 580 39,000 -1,050 Level Miami Center
Sat 10:15:58 PM 27.0078 -82.0272 140° Southeast 499 574 36,900 -2,182 Descending Miami Center
Sat 10:16:58 PM 26.9147 -81.9392 140° Southeast 493 567 34,600 -2,695 Descending Miami Center
Sat 10:17:56 PM 26.8078 -81.8347 139° Southeast 499 574 31,600 -3,000 Descending Miami Center
Sat 10:18:56 PM 26.7047 -81.7350 139° Southeast 499 574 28,700 -2,803 Descending Miami Center
Sat 10:19:58 PM 26.5914 -81.6258 139° Southeast 494 568 25,900 -2,529 Descending Miami Center
Sat 10:20:57 PM 26.4922 -81.5336 140° Southeast 480 552 23,600 -2,200 Descending Miami Center
Sat 10:21:58 PM 26.4008 -81.4464 139° Southeast 458 527 21,500 -2,168 Descending Miami Center
Sat 10:22:56 PM 26.3139 -81.3619 139° Southeast 434 499 19,300 -2,168 Descending Miami Center
Sat 10:23:57 PM 26.2286 -81.2847 141° Southeast 418 481 17,200 -2,361 Descending Miami Center
Sat 10:24:58 PM 26.1472 -81.2053 139° Southeast 396 456 14,500 -2,182 Descending Miami Center
Sat 10:25:47 PM 26.0781 -81.1472 143° Southeast 379 436 13,200 -1,750 Descending Miami Center
Sat 10:26:34 PM 26.0150 -81.0872 139° Southeast 353 406 11,700 -1,913 Descending Miami Center
Sat 10:26:56 PM 25.9928 -81.0611 133° Southeast 373 429 11,000 -1,254 Descending Miami Center
Sat 10:27:41 PM 25.9397 -81.0153 142° Southeast 330 380 10,300 -900 Descending Miami Center
Sat 10:27:56 PM 25.9258 -80.9986 133° Southeast 349 402 10,100 -984 Descending Miami Center
Sat 10:28:42 PM 25.8853 -80.9489 132° Southeast 292 336 9,300 -1,180 Descending Miami Center
Sat 10:28:57 PM 25.8839 -80.9233 93° East 296 341 8,900 -1,525 Descending Miami Center
Sat 10:29:41 PM 25.8669 -80.8558 106° East 284 327 7,800 -1,424 Descending Miami Center
Sat 10:29:56 PM 25.8675 -80.8350 88° East 283 326 7,500 -1,333 Descending Miami Center
Sat 10:30:44 PM 25.8483 -80.7722 109° East 280 322 6,400 -1,376 Descending Miami Center
Sat 10:31:45 PM 25.8339 -80.6864 101° East 278 320 5,000 -1,328 Descending Miami Center
Sat 10:32:46 PM 25.8153 -80.6025 104° East 275 316 3,700 -992 Descending Miami Center
Sat 10:33:46 PM 25.8003 -80.5306 103° East 230 265 3,000 -700 Descending Miami Center

Login

Don't have an account? Register now (free) for customized features, flight alerts, and more!